sensor_id;sensor_type;location;lat;lon;timestamp;temperature;humidity
65378;SHT31;51982;51.042;13.806;2023-03-14T00:01:44;12.90;92.55
65378;SHT31;51982;51.042;13.806;2023-03-14T00:04:10;12.92;92.74
65378;SHT31;51982;51.042;13.806;2023-03-14T00:06:35;12.89;92.64
65378;SHT31;51982;51.042;13.806;2023-03-14T00:09:00;12.90;92.64
65378;SHT31;51982;51.042;13.806;2023-03-14T00:11:25;12.87;92.33
65378;SHT31;51982;51.042;13.806;2023-03-14T00:13:51;12.89;92.31
65378;SHT31;51982;51.042;13.806;2023-03-14T00:16:16;12.85;92.21
65378;SHT31;51982;51.042;13.806;2023-03-14T00:18:42;12.86;92.32
65378;SHT31;51982;51.042;13.806;2023-03-14T00:21:08;12.83;92.46
65378;SHT31;51982;51.042;13.806;2023-03-14T00:23:33;12.77;92.28
65378;SHT31;51982;51.042;13.806;2023-03-14T00:26:00;12.75;92.48
65378;SHT31;51982;51.042;13.806;2023-03-14T00:28:25;12.69;92.51
65378;SHT31;51982;51.042;13.806;2023-03-14T00:30:50;12.72;92.50
65378;SHT31;51982;51.042;13.806;2023-03-14T00:33:16;12.67;92.28
65378;SHT31;51982;51.042;13.806;2023-03-14T00:35:41;12.73;92.32
65378;SHT31;51982;51.042;13.806;2023-03-14T00:38:06;12.76;92.16
65378;SHT31;51982;51.042;13.806;2023-03-14T00:40:31;12.77;91.94
65378;SHT31;51982;51.042;13.806;2023-03-14T00:42:56;12.73;91.97
65378;SHT31;51982;51.042;13.806;2023-03-14T00:45:21;12.73;91.94
65378;SHT31;51982;51.042;13.806;2023-03-14T00:47:46;12.75;91.98
65378;SHT31;51982;51.042;13.806;2023-03-14T00:50:12;12.77;92.01
65378;SHT31;51982;51.042;13.806;2023-03-14T00:52:37;12.77;91.72
65378;SHT31;51982;51.042;13.806;2023-03-14T00:55:02;12.77;91.78
65378;SHT31;51982;51.042;13.806;2023-03-14T00:57:28;12.79;91.76
65378;SHT31;51982;51.042;13.806;2023-03-14T00:59:53;12.77;91.64
65378;SHT31;51982;51.042;13.806;2023-03-14T01:02:18;12.75;91.52
65378;SHT31;51982;51.042;13.806;2023-03-14T01:04:43;12.75;91.40
65378;SHT31;51982;51.042;13.806;2023-03-14T01:07:08;12.76;91.37
65378;SHT31;51982;51.042;13.806;2023-03-14T01:09:33;12.77;91.27
65378;SHT31;51982;51.042;13.806;2023-03-14T01:11:59;12.75;91.35
65378;SHT31;51982;51.042;13.806;2023-03-14T01:14:24;12.72;91.32
65378;SHT31;51982;51.042;13.806;2023-03-14T01:16:49;12.72;91.27
65378;SHT31;51982;51.042;13.806;2023-03-14T01:19:14;12.70;91.35
65378;SHT31;51982;51.042;13.806;2023-03-14T01:21:39;12.67;91.48
65378;SHT31;51982;51.042;13.806;2023-03-14T01:24:05;12.66;91.39
65378;SHT31;51982;51.042;13.806;2023-03-14T01:26:31;12.63;91.37
65378;SHT31;51982;51.042;13.806;2023-03-14T01:28:57;12.65;91.32
65378;SHT31;51982;51.042;13.806;2023-03-14T01:31:22;12.66;91.25
65378;SHT31;51982;51.042;13.806;2023-03-14T01:33:48;12.67;91.17
65378;SHT31;51982;51.042;13.806;2023-03-14T01:36:13;12.67;91.21
65378;SHT31;51982;51.042;13.806;2023-03-14T01:38:38;12.70;91.11
65378;SHT31;51982;51.042;13.806;2023-03-14T01:41:05;12.67;91.06
65378;SHT31;51982;51.042;13.806;2023-03-14T01:43:30;12.67;91.05
65378;SHT31;51982;51.042;13.806;2023-03-14T01:48:44;12.67;91.06
65378;SHT31;51982;51.042;13.806;2023-03-14T01:51:14;12.66;91.12
65378;SHT31;51982;51.042;13.806;2023-03-14T01:53:40;12.67;91.11
65378;SHT31;51982;51.042;13.806;2023-03-14T01:56:07;12.66;91.25
65378;SHT31;51982;51.042;13.806;2023-03-14T01:58:33;12.62;91.24
65378;SHT31;51982;51.042;13.806;2023-03-14T02:01:01;12.63;91.10
65378;SHT31;51982;51.042;13.806;2023-03-14T02:03:27;12.62;91.01
65378;SHT31;51982;51.042;13.806;2023-03-14T02:05:53;12.65;90.91
65378;SHT31;51982;51.042;13.806;2023-03-14T02:08:20;12.63;90.88
65378;SHT31;51982;51.042;13.806;2023-03-14T02:10:47;12.62;90.66
65378;SHT31;51982;51.042;13.806;2023-03-14T02:13:13;12.62;90.46
65378;SHT31;51982;51.042;13.806;2023-03-14T02:15:39;12.62;90.34
65378;SHT31;51982;51.042;13.806;2023-03-14T02:18:05;12.59;90.41
65378;SHT31;51982;51.042;13.806;2023-03-14T02:20:36;12.57;90.35
65378;SHT31;51982;51.042;13.806;2023-03-14T02:23:03;12.59;89.97
65378;SHT31;51982;51.042;13.806;2023-03-14T02:25:31;12.56;90.10
65378;SHT31;51982;51.042;13.806;2023-03-14T02:27:59;12.55;90.09
65378;SHT31;51982;51.042;13.806;2023-03-14T02:30:26;12.50;90.13
65378;SHT31;51982;51.042;13.806;2023-03-14T02:32:55;12.52;90.08
65378;SHT31;51982;51.042;13.806;2023-03-14T02:35:23;12.52;89.93
65378;SHT31;51982;51.042;13.806;2023-03-14T02:37:51;12.52;89.97
65378;SHT31;51982;51.042;13.806;2023-03-14T02:40:17;12.46;89.98
65378;SHT31;51982;51.042;13.806;2023-03-14T02:42:42;12.48;90.01
65378;SHT31;51982;51.042;13.806;2023-03-14T02:47:32;12.44;89.75
65378;SHT31;51982;51.042;13.806;2023-03-14T02:49:59;12.42;89.63
65378;SHT31;51982;51.042;13.806;2023-03-14T02:52:26;12.39;89.52
65378;SHT31;51982;51.042;13.806;2023-03-14T02:54:51;12.41;89.34
65378;SHT31;51982;51.042;13.806;2023-03-14T02:57:16;12.42;89.47
65378;SHT31;51982;51.042;13.806;2023-03-14T02:59:42;12.41;89.26
65378;SHT31;51982;51.042;13.806;2023-03-14T03:02:07;12.44;89.08
65378;SHT31;51982;51.042;13.806;2023-03-14T03:04:32;12.42;89.09
65378;SHT31;51982;51.042;13.806;2023-03-14T03:06:57;12.45;88.78
65378;SHT31;51982;51.042;13.806;2023-03-14T03:09:22;12.45;88.67
65378;SHT31;51982;51.042;13.806;2023-03-14T03:11:47;12.45;88.69
65378;SHT31;51982;51.042;13.806;2023-03-14T03:14:13;12.45;88.49
65378;SHT31;51982;51.042;13.806;2023-03-14T03:16:38;12.46;88.17
65378;SHT31;51982;51.042;13.806;2023-03-14T03:19:03;12.48;87.95
65378;SHT31;51982;51.042;13.806;2023-03-14T03:21:28;12.49;88.10
65378;SHT31;51982;51.042;13.806;2023-03-14T03:23:53;12.41;88.20
65378;SHT31;51982;51.042;13.806;2023-03-14T03:26:19;12.44;87.82
65378;SHT31;51982;51.042;13.806;2023-03-14T03:28:44;12.41;88.72
65378;SHT31;51982;51.042;13.806;2023-03-14T03:31:09;12.38;88.33
65378;SHT31;51982;51.042;13.806;2023-03-14T03:33:36;12.39;87.71
65378;SHT31;51982;51.042;13.806;2023-03-14T03:36:01;12.39;88.22
65378;SHT31;51982;51.042;13.806;2023-03-14T03:38:26;12.38;88.37
65378;SHT31;51982;51.042;13.806;2023-03-14T03:40:51;12.36;88.38
65378;SHT31;51982;51.042;13.806;2023-03-14T03:43:16;12.34;88.40
65378;SHT31;51982;51.042;13.806;2023-03-14T03:45:43;12.36;88.30
65378;SHT31;51982;51.042;13.806;2023-03-14T03:48:08;12.35;87.97
65378;SHT31;51982;51.042;13.806;2023-03-14T03:50:33;12.29;87.89
65378;SHT31;51982;51.042;13.806;2023-03-14T03:52:58;12.32;87.60
65378;SHT31;51982;51.042;13.806;2023-03-14T03:55:24;12.29;87.72
65378;SHT31;51982;51.042;13.806;2023-03-14T03:57:50;12.25;88.06
65378;SHT31;51982;51.042;13.806;2023-03-14T04:00:15;12.25;88.12
65378;SHT31;51982;51.042;13.806;2023-03-14T04:02:41;12.24;88.49
65378;SHT31;51982;51.042;13.806;2023-03-14T04:05:06;12.17;88.61
65378;SHT31;51982;51.042;13.806;2023-03-14T04:07:32;12.12;88.67
65378;SHT31;51982;51.042;13.806;2023-03-14T04:09:57;12.11;88.61
65378;SHT31;51982;51.042;13.806;2023-03-14T04:12:22;12.10;88.71
65378;SHT31;51982;51.042;13.806;2023-03-14T04:14:47;12.08;88.63
65378;SHT31;51982;51.042;13.806;2023-03-14T04:17:12;12.08;88.43
65378;SHT31;51982;51.042;13.806;2023-03-14T04:19:38;12.06;88.22
65378;SHT31;51982;51.042;13.806;2023-03-14T04:22:03;12.12;87.99
65378;SHT31;51982;51.042;13.806;2023-03-14T04:24:28;12.10;87.96
65378;SHT31;51982;51.042;13.806;2023-03-14T04:26:53;12.12;87.87
65378;SHT31;51982;51.042;13.806;2023-03-14T04:29:18;12.11;87.96
65378;SHT31;51982;51.042;13.806;2023-03-14T04:31:43;12.12;87.59
65378;SHT31;51982;51.042;13.806;2023-03-14T04:34:09;12.11;86.88
65378;SHT31;51982;51.042;13.806;2023-03-14T04:36:34;12.18;86.12
65378;SHT31;51982;51.042;13.806;2023-03-14T04:38:59;12.18;86.07
65378;SHT31;51982;51.042;13.806;2023-03-14T04:41:24;12.21;85.99
65378;SHT31;51982;51.042;13.806;2023-03-14T04:43:49;12.25;86.14
65378;SHT31;51982;51.042;13.806;2023-03-14T04:46:14;12.22;85.78
65378;SHT31;51982;51.042;13.806;2023-03-14T04:48:40;12.25;85.72
65378;SHT31;51982;51.042;13.806;2023-03-14T04:51:05;12.24;85.27
65378;SHT31;51982;51.042;13.806;2023-03-14T04:53:30;12.24;85.29
65378;SHT31;51982;51.042;13.806;2023-03-14T04:55:55;12.24;85.36
65378;SHT31;51982;51.042;13.806;2023-03-14T04:58:21;12.25;85.30
65378;SHT31;51982;51.042;13.806;2023-03-14T05:00:46;12.22;84.19
65378;SHT31;51982;51.042;13.806;2023-03-14T05:03:11;12.25;84.57
65378;SHT31;51982;51.042;13.806;2023-03-14T05:05:37;12.21;84.04
65378;SHT31;51982;51.042;13.806;2023-03-14T05:08:02;12.21;83.05
65378;SHT31;51982;51.042;13.806;2023-03-14T05:10:27;12.22;83.12
65378;SHT31;51982;51.042;13.806;2023-03-14T05:12:52;12.25;83.05
65378;SHT31;51982;51.042;13.806;2023-03-14T05:15:17;12.25;82.70
65378;SHT31;51982;51.042;13.806;2023-03-14T05:17:43;12.29;82.78
65378;SHT31;51982;51.042;13.806;2023-03-14T05:20:08;12.29;82.68
65378;SHT31;51982;51.042;13.806;2023-03-14T05:22:34;12.34;82.73
65378;SHT31;51982;51.042;13.806;2023-03-14T05:24:59;12.35;82.29
65378;SHT31;51982;51.042;13.806;2023-03-14T05:27:24;12.38;82.29
65378;SHT31;51982;51.042;13.806;2023-03-14T05:29:50;12.39;82.01
65378;SHT31;51982;51.042;13.806;2023-03-14T05:32:15;12.41;82.24
65378;SHT31;51982;51.042;13.806;2023-03-14T05:34:40;12.42;81.66
65378;SHT31;51982;51.042;13.806;2023-03-14T05:37:05;12.42;81.71
65378;SHT31;51982;51.042;13.806;2023-03-14T05:39:32;12.44;81.48
65378;SHT31;51982;51.042;13.806;2023-03-14T05:41:57;12.42;81.62
65378;SHT31;51982;51.042;13.806;2023-03-14T05:44:22;12.44;81.59
65378;SHT31;51982;51.042;13.806;2023-03-14T05:46:47;12.44;81.66
65378;SHT31;51982;51.042;13.806;2023-03-14T05:49:12;12.45;81.64
65378;SHT31;51982;51.042;13.806;2023-03-14T05:51:38;12.44;81.66
65378;SHT31;51982;51.042;13.806;2023-03-14T05:54:03;12.46;81.41
65378;SHT31;51982;51.042;13.806;2023-03-14T05:56:28;12.45;81.72
65378;SHT31;51982;51.042;13.806;2023-03-14T05:58:53;12.44;81.93
65378;SHT31;51982;51.042;13.806;2023-03-14T06:01:18;12.44;81.88
65378;SHT31;51982;51.042;13.806;2023-03-14T06:03:43;12.44;82.04
65378;SHT31;51982;51.042;13.806;2023-03-14T06:06:09;12.48;82.11
65378;SHT31;51982;51.042;13.806;2023-03-14T06:08:34;12.42;82.26
65378;SHT31;51982;51.042;13.806;2023-03-14T06:10:59;12.41;81.77
65378;SHT31;51982;51.042;13.806;2023-03-14T06:13:24;12.46;81.76
65378;SHT31;51982;51.042;13.806;2023-03-14T06:15:50;12.49;82.20
65378;SHT31;51982;51.042;13.806;2023-03-14T06:18:15;12.52;81.75
65378;SHT31;51982;51.042;13.806;2023-03-14T06:20:40;12.55;81.67
65378;SHT31;51982;51.042;13.806;2023-03-14T06:23:06;12.53;81.53
65378;SHT31;51982;51.042;13.806;2023-03-14T06:25:32;12.59;81.79
65378;SHT31;51982;51.042;13.806;2023-03-14T06:27:57;12.59;81.57
65378;SHT31;51982;51.042;13.806;2023-03-14T06:30:22;12.63;81.46
65378;SHT31;51982;51.042;13.806;2023-03-14T06:32:47;12.63;81.92
65378;SHT31;51982;51.042;13.806;2023-03-14T06:35:12;12.65;82.00
65378;SHT31;51982;51.042;13.806;2023-03-14T06:37:38;12.72;81.51
65378;SHT31;51982;51.042;13.806;2023-03-14T06:40:03;12.73;81.47
65378;SHT31;51982;51.042;13.806;2023-03-14T06:42:30;12.75;81.64
65378;SHT31;51982;51.042;13.806;2023-03-14T06:44:55;12.75;81.20
65378;SHT31;51982;51.042;13.806;2023-03-14T06:47:20;12.82;80.90
65378;SHT31;51982;51.042;13.806;2023-03-14T06:49:45;12.82;80.75
65378;SHT31;51982;51.042;13.806;2023-03-14T06:52:10;12.83;80.92
65378;SHT31;51982;51.042;13.806;2023-03-14T06:54:36;12.89;81.37
65378;SHT31;51982;51.042;13.806;2023-03-14T06:57:01;12.97;81.10
65378;SHT31;51982;51.042;13.806;2023-03-14T06:59:26;12.99;81.05
65378;SHT31;51982;51.042;13.806;2023-03-14T07:01:51;13.00;80.92
65378;SHT31;51982;51.042;13.806;2023-03-14T07:04:17;13.02;80.92
65378;SHT31;51982;51.042;13.806;2023-03-14T07:06:42;13.04;80.58
65378;SHT31;51982;51.042;13.806;2023-03-14T07:09:09;13.08;80.76
65378;SHT31;51982;51.042;13.806;2023-03-14T07:11:35;13.11;81.30
65378;SHT31;51982;51.042;13.806;2023-03-14T07:14:00;13.11;81.22
65378;SHT31;51982;51.042;13.806;2023-03-14T07:16:25;13.13;80.48
65378;SHT31;51982;51.042;13.806;2023-03-14T07:18:53;13.13;80.61
65378;SHT31;51982;51.042;13.806;2023-03-14T07:21:18;13.14;80.50
65378;SHT31;51982;51.042;13.806;2023-03-14T07:23:43;13.17;80.50
65378;SHT31;51982;51.042;13.806;2023-03-14T07:26:09;13.18;80.41
65378;SHT31;51982;51.042;13.806;2023-03-14T07:28:34;13.16;80.63
65378;SHT31;51982;51.042;13.806;2023-03-14T07:30:59;13.18;80.81
65378;SHT31;51982;51.042;13.806;2023-03-14T07:33:24;13.17;80.75
65378;SHT31;51982;51.042;13.806;2023-03-14T07:35:49;13.17;80.54
65378;SHT31;51982;51.042;13.806;2023-03-14T07:38:15;13.17;80.74
65378;SHT31;51982;51.042;13.806;2023-03-14T07:40:40;13.17;81.32
65378;SHT31;51982;51.042;13.806;2023-03-14T07:43:06;13.18;80.54
65378;SHT31;51982;51.042;13.806;2023-03-14T07:45:31;13.26;80.53
65378;SHT31;51982;51.042;13.806;2023-03-14T07:47:56;13.28;80.56
65378;SHT31;51982;51.042;13.806;2023-03-14T07:50:22;13.36;80.77
65378;SHT31;51982;51.042;13.806;2023-03-14T07:52:48;13.36;80.54
65378;SHT31;51982;51.042;13.806;2023-03-14T07:55:14;13.38;80.61
65378;SHT31;51982;51.042;13.806;2023-03-14T07:57:39;13.40;81.04
65378;SHT31;51982;51.042;13.806;2023-03-14T08:00:04;13.37;81.04
65378;SHT31;51982;51.042;13.806;2023-03-14T08:02:30;13.37;80.73
65378;SHT31;51982;51.042;13.806;2023-03-14T08:04:55;13.38;80.52
65378;SHT31;51982;51.042;13.806;2023-03-14T08:07:20;13.38;80.81
65378;SHT31;51982;51.042;13.806;2023-03-14T08:09:45;13.40;80.66
65378;SHT31;51982;51.042;13.806;2023-03-14T08:12:11;13.43;80.71
65378;SHT31;51982;51.042;13.806;2023-03-14T08:14:36;13.47;80.42
65378;SHT31;51982;51.042;13.806;2023-03-14T08:17:01;13.48;79.94
65378;SHT31;51982;51.042;13.806;2023-03-14T08:19:26;13.51;79.72
65378;SHT31;51982;51.042;13.806;2023-03-14T08:21:51;13.47;79.84
65378;SHT31;51982;51.042;13.806;2023-03-14T08:24:17;13.48;79.90
65378;SHT31;51982;51.042;13.806;2023-03-14T08:26:42;13.47;79.47
65378;SHT31;51982;51.042;13.806;2023-03-14T08:29:07;13.48;79.60
65378;SHT31;51982;51.042;13.806;2023-03-14T08:31:34;13.58;79.45
65378;SHT31;51982;51.042;13.806;2023-03-14T08:33:59;13.68;79.03
65378;SHT31;51982;51.042;13.806;2023-03-14T08:36:24;13.83;79.37
65378;SHT31;51982;51.042;13.806;2023-03-14T08:38:49;13.94;77.60
65378;SHT31;51982;51.042;13.806;2023-03-14T08:41:15;14.05;77.38
65378;SHT31;51982;51.042;13.806;2023-03-14T08:43:40;14.13;75.98
65378;SHT31;51982;51.042;13.806;2023-03-14T08:46:05;14.23;75.77
65378;SHT31;51982;51.042;13.806;2023-03-14T08:48:30;14.28;74.87
65378;SHT31;51982;51.042;13.806;2023-03-14T08:50:56;14.33;74.97
65378;SHT31;51982;51.042;13.806;2023-03-14T08:53:21;14.42;74.24
65378;SHT31;51982;51.042;13.806;2023-03-14T08:55:51;14.60;73.82
65378;SHT31;51982;51.042;13.806;2023-03-14T08:58:16;14.69;73.93
65378;SHT31;51982;51.042;13.806;2023-03-14T09:00:42;14.64;73.71
65378;SHT31;51982;51.042;13.806;2023-03-14T09:03:07;14.55;73.68
65378;SHT31;51982;51.042;13.806;2023-03-14T09:05:33;14.56;74.09
65378;SHT31;51982;51.042;13.806;2023-03-14T09:07:59;14.50;74.52
65378;SHT31;51982;51.042;13.806;2023-03-14T09:10:24;14.50;74.45
65378;SHT31;51982;51.042;13.806;2023-03-14T09:12:49;14.49;73.66
65378;SHT31;51982;51.042;13.806;2023-03-14T09:15:14;14.57;76.39
65378;SHT31;51982;51.042;13.806;2023-03-14T09:17:39;14.61;74.43
65378;SHT31;51982;51.042;13.806;2023-03-14T09:20:07;14.69;73.50
65378;SHT31;51982;51.042;13.806;2023-03-14T09:22:33;14.76;73.22
65378;SHT31;51982;51.042;13.806;2023-03-14T09:25:00;14.84;73.73
65378;SHT31;51982;51.042;13.806;2023-03-14T09:27:25;14.79;73.59
65378;SHT31;51982;51.042;13.806;2023-03-14T09:29:50;14.80;73.65
65378;SHT31;51982;51.042;13.806;2023-03-14T09:32:16;14.76;73.95
65378;SHT31;51982;51.042;13.806;2023-03-14T09:34:41;14.74;73.99
65378;SHT31;51982;51.042;13.806;2023-03-14T09:37:06;14.66;73.90
65378;SHT31;51982;51.042;13.806;2023-03-14T09:39:31;14.61;74.00
65378;SHT31;51982;51.042;13.806;2023-03-14T09:41:56;14.59;74.17
65378;SHT31;51982;51.042;13.806;2023-03-14T09:46:52;14.52;74.14
65378;SHT31;51982;51.042;13.806;2023-03-14T09:49:22;14.55;73.98
65378;SHT31;51982;51.042;13.806;2023-03-14T09:51:49;14.55;74.31
65378;SHT31;51982;51.042;13.806;2023-03-14T09:54:19;14.52;74.13
65378;SHT31;51982;51.042;13.806;2023-03-14T09:56:49;14.44;73.98
65378;SHT31;51982;51.042;13.806;2023-03-14T09:59:14;14.36;73.71
65378;SHT31;51982;51.042;13.806;2023-03-14T10:01:39;14.37;73.98
65378;SHT31;51982;51.042;13.806;2023-03-14T10:04:12;14.34;74.03
65378;SHT31;51982;51.042;13.806;2023-03-14T10:06:39;14.34;74.00
65378;SHT31;51982;51.042;13.806;2023-03-14T10:09:04;14.36;74.02
65378;SHT31;51982;51.042;13.806;2023-03-14T10:11:30;14.34;73.53
65378;SHT31;51982;51.042;13.806;2023-03-14T10:14:06;14.34;73.66
65378;SHT31;51982;51.042;13.806;2023-03-14T10:16:33;14.39;73.53
65378;SHT31;51982;51.042;13.806;2023-03-14T10:19:03;14.37;73.50
65378;SHT31;51982;51.042;13.806;2023-03-14T10:21:29;14.33;73.01
65378;SHT31;51982;51.042;13.806;2023-03-14T10:23:55;14.26;72.96
65378;SHT31;51982;51.042;13.806;2023-03-14T10:26:31;14.34;73.40
65378;SHT31;51982;51.042;13.806;2023-03-14T10:29:10;14.36;73.24
65378;SHT31;51982;51.042;13.806;2023-03-14T10:31:50;14.36;72.98
65378;SHT31;51982;51.042;13.806;2023-03-14T10:34:16;14.37;73.03
65378;SHT31;51982;51.042;13.806;2023-03-14T10:36:41;14.46;72.99
65378;SHT31;51982;51.042;13.806;2023-03-14T10:39:26;14.43;72.57
65378;SHT31;51982;51.042;13.806;2023-03-14T10:41:53;14.56;72.79
65378;SHT31;51982;51.042;13.806;2023-03-14T10:44:19;14.57;72.91
65378;SHT31;51982;51.042;13.806;2023-03-14T10:46:45;14.55;73.15
65378;SHT31;51982;51.042;13.806;2023-03-14T10:49:16;14.57;72.48
65378;SHT31;51982;51.042;13.806;2023-03-14T10:51:47;14.60;72.52
65378;SHT31;51982;51.042;13.806;2023-03-14T10:54:14;14.61;72.32
65378;SHT31;51982;51.042;13.806;2023-03-14T10:56:43;14.63;72.58
65378;SHT31;51982;51.042;13.806;2023-03-14T10:59:12;14.63;72.78
65378;SHT31;51982;51.042;13.806;2023-03-14T11:01:52;14.66;72.29
65378;SHT31;51982;51.042;13.806;2023-03-14T11:06:56;14.66;72.25
65378;SHT31;51982;51.042;13.806;2023-03-14T11:11:52;14.64;72.13
65378;SHT31;51982;51.042;13.806;2023-03-14T11:14:33;14.69;72.07
65378;SHT31;51982;51.042;13.806;2023-03-14T11:19:31;14.73;72.38
65378;SHT31;51982;51.042;13.806;2023-03-14T11:32:04;14.88;71.87
65378;SHT31;51982;51.042;13.806;2023-03-14T11:34:39;14.83;71.52
65378;SHT31;51982;51.042;13.806;2023-03-14T11:37:18;14.97;71.24
65378;SHT31;51982;51.042;13.806;2023-03-14T11:39:48;15.11;71.06
65378;SHT31;51982;51.042;13.806;2023-03-14T11:42:16;15.34;71.15
65378;SHT31;51982;51.042;13.806;2023-03-14T11:44:43;15.41;70.99
65378;SHT31;51982;51.042;13.806;2023-03-14T11:47:10;15.41;71.09
65378;SHT31;51982;51.042;13.806;2023-03-14T11:49:38;15.44;69.66
65378;SHT31;51982;51.042;13.806;2023-03-14T11:54:43;15.42;70.12
65378;SHT31;51982;51.042;13.806;2023-03-14T11:57:18;15.27;70.17
65378;SHT31;51982;51.042;13.806;2023-03-14T12:05:16;15.14;70.44
65378;SHT31;51982;51.042;13.806;2023-03-14T12:08:07;15.07;69.95
65378;SHT31;51982;51.042;13.806;2023-03-14T12:10:45;15.11;70.31
65378;SHT31;51982;51.042;13.806;2023-03-14T12:13:12;15.15;70.28
65378;SHT31;51982;51.042;13.806;2023-03-14T12:15:38;15.18;70.00
65378;SHT31;51982;51.042;13.806;2023-03-14T12:18:12;15.30;69.70
65378;SHT31;51982;51.042;13.806;2023-03-14T12:20:41;15.46;69.74
65378;SHT31;51982;51.042;13.806;2023-03-14T12:23:15;15.67;69.90
65378;SHT31;51982;51.042;13.806;2023-03-14T12:25:41;15.70;69.89
65378;SHT31;51982;51.042;13.806;2023-03-14T12:28:19;15.76;69.32
65378;SHT31;51982;51.042;13.806;2023-03-14T12:30:46;15.76;69.07
65378;SHT31;51982;51.042;13.806;2023-03-14T12:38:13;16.06;70.19
65378;SHT31;51982;51.042;13.806;2023-03-14T12:43:25;15.90;71.57
65378;SHT31;51982;51.042;13.806;2023-03-14T12:46:06;15.79;70.38
65378;SHT31;51982;51.042;13.806;2023-03-14T12:48:32;15.78;70.59
65378;SHT31;51982;51.042;13.806;2023-03-14T12:51:02;15.69;70.36
65378;SHT31;51982;51.042;13.806;2023-03-14T12:53:42;15.70;71.00
65378;SHT31;51982;51.042;13.806;2023-03-14T12:56:20;15.85;71.06
65378;SHT31;51982;51.042;13.806;2023-03-14T12:59:02;16.00;70.36
65378;SHT31;51982;51.042;13.806;2023-03-14T13:01:30;16.10;68.57
65378;SHT31;51982;51.042;13.806;2023-03-14T13:03:58;16.12;68.01
65378;SHT31;51982;51.042;13.806;2023-03-14T13:06:47;16.41;68.00
65378;SHT31;51982;51.042;13.806;2023-03-14T13:12:13;16.72;68.90
65378;SHT31;51982;51.042;13.806;2023-03-14T13:14:45;16.82;68.12
65378;SHT31;51982;51.042;13.806;2023-03-14T13:17:12;16.85;68.38
65378;SHT31;51982;51.042;13.806;2023-03-14T13:19:37;16.92;66.99
65378;SHT31;51982;51.042;13.806;2023-03-14T13:22:04;17.07;67.30
65378;SHT31;51982;51.042;13.806;2023-03-14T13:24:32;17.15;66.93
65378;SHT31;51982;51.042;13.806;2023-03-14T13:26:58;17.30;66.69
65378;SHT31;51982;51.042;13.806;2023-03-14T13:29:30;17.25;65.74
65378;SHT31;51982;51.042;13.806;2023-03-14T13:31:59;17.22;66.69
65378;SHT31;51982;51.042;13.806;2023-03-14T13:34:28;17.28;66.35
65378;SHT31;51982;51.042;13.806;2023-03-14T13:36:54;17.33;66.42
65378;SHT31;51982;51.042;13.806;2023-03-14T13:39:20;17.30;66.33
65378;SHT31;51982;51.042;13.806;2023-03-14T13:41:49;17.25;66.97
65378;SHT31;51982;51.042;13.806;2023-03-14T13:44:57;17.35;66.14
65378;SHT31;51982;51.042;13.806;2023-03-14T13:47:03;17.35;65.88
65378;SHT31;51982;51.042;13.806;2023-03-14T13:49:31;17.50;66.39
65378;SHT31;51982;51.042;13.806;2023-03-14T13:51:59;17.57;65.79
65378;SHT31;51982;51.042;13.806;2023-03-14T13:54:25;17.56;65.80
65378;SHT31;51982;51.042;13.806;2023-03-14T13:56:58;17.42;65.26
65378;SHT31;51982;51.042;13.806;2023-03-14T13:59:28;17.38;65.64
65378;SHT31;51982;51.042;13.806;2023-03-14T14:01:53;17.52;65.29
65378;SHT31;51982;51.042;13.806;2023-03-14T14:04:20;17.43;65.62
65378;SHT31;51982;51.042;13.806;2023-03-14T14:06:52;17.46;65.31
65378;SHT31;51982;51.042;13.806;2023-03-14T14:09:19;17.33;65.07
65378;SHT31;51982;51.042;13.806;2023-03-14T14:11:55;17.32;65.30
65378;SHT31;51982;51.042;13.806;2023-03-14T14:14:22;17.22;65.67
65378;SHT31;51982;51.042;13.806;2023-03-14T14:16:49;17.15;65.40
65378;SHT31;51982;51.042;13.806;2023-03-14T14:19:15;17.15;66.02
65378;SHT31;51982;51.042;13.806;2023-03-14T14:21:41;17.15;66.23
65378;SHT31;51982;51.042;13.806;2023-03-14T14:24:08;17.01;65.58
65378;SHT31;51982;51.042;13.806;2023-03-14T14:26:34;17.07;66.36
65378;SHT31;51982;51.042;13.806;2023-03-14T14:29:03;17.16;66.34
65378;SHT31;51982;51.042;13.806;2023-03-14T14:31:28;17.28;66.01
65378;SHT31;51982;51.042;13.806;2023-03-14T14:33:55;17.28;65.02
65378;SHT31;51982;51.042;13.806;2023-03-14T14:38:50;17.15;66.54
65378;SHT31;51982;51.042;13.806;2023-03-14T14:41:15;17.07;65.81
65378;SHT31;51982;51.042;13.806;2023-03-14T14:43:40;17.07;65.24
65378;SHT31;51982;51.042;13.806;2023-03-14T14:46:06;17.15;65.09
65378;SHT31;51982;51.042;13.806;2023-03-14T14:48:35;17.15;64.62
65378;SHT31;51982;51.042;13.806;2023-03-14T14:51:02;17.16;65.34
65378;SHT31;51982;51.042;13.806;2023-03-14T14:53:29;17.21;65.60
65378;SHT31;51982;51.042;13.806;2023-03-14T14:55:56;17.09;65.32
65378;SHT31;51982;51.042;13.806;2023-03-14T14:58:26;17.07;66.02
65378;SHT31;51982;51.042;13.806;2023-03-14T15:01:04;16.95;66.43
65378;SHT31;51982;51.042;13.806;2023-03-14T15:03:31;16.92;66.76
65378;SHT31;51982;51.042;13.806;2023-03-14T15:05:57;16.98;66.39
65378;SHT31;51982;51.042;13.806;2023-03-14T15:08:23;17.07;66.06
65378;SHT31;51982;51.042;13.806;2023-03-14T15:10:48;17.08;65.92
65378;SHT31;51982;51.042;13.806;2023-03-14T15:13:14;17.14;65.58
65378;SHT31;51982;51.042;13.806;2023-03-14T15:15:39;17.09;65.38
65378;SHT31;51982;51.042;13.806;2023-03-14T15:18:12;17.12;66.13
65378;SHT31;51982;51.042;13.806;2023-03-14T15:20:39;16.98;66.00
65378;SHT31;51982;51.042;13.806;2023-03-14T15:23:07;16.81;66.35
65378;SHT31;51982;51.042;13.806;2023-03-14T15:25:34;16.61;66.92
65378;SHT31;51982;51.042;13.806;2023-03-14T15:27:59;16.53;66.84
65378;SHT31;51982;51.042;13.806;2023-03-14T15:30:24;16.48;67.02
65378;SHT31;51982;51.042;13.806;2023-03-14T15:32:50;16.48;67.28
65378;SHT31;51982;51.042;13.806;2023-03-14T15:35:15;16.48;67.25
65378;SHT31;51982;51.042;13.806;2023-03-14T15:37:40;16.47;67.07
65378;SHT31;51982;51.042;13.806;2023-03-14T15:40:05;16.37;67.51
65378;SHT31;51982;51.042;13.806;2023-03-14T15:42:38;16.37;67.11
65378;SHT31;51982;51.042;13.806;2023-03-14T15:45:03;16.30;67.73
65378;SHT31;51982;51.042;13.806;2023-03-14T15:47:29;16.30;67.16
65378;SHT31;51982;51.042;13.806;2023-03-14T15:49:57;16.26;67.61
65378;SHT31;51982;51.042;13.806;2023-03-14T15:52:22;16.24;67.91
65378;SHT31;51982;51.042;13.806;2023-03-14T15:54:47;16.16;67.71
65378;SHT31;51982;51.042;13.806;2023-03-14T15:57:12;16.13;67.82
65378;SHT31;51982;51.042;13.806;2023-03-14T15:59:37;16.09;68.02